Lawton, Nevada
Current Conditions -  °F | °C
As of 6:55 PM on Tuesday 21 Oct 2014 (Local Time) from KRNO Reporting Station
Broken Clouds Broken Clouds  
Wind Chill: 55°   Ceiling: 25000
Heat Index: 55°   Visibility: 10mi
Dew Point: 28°   Wind: 10mph
Humidity: 35%   Direction: 10°N
Pressure: 30.06"   Gusts: NA
Location:  39.5376°N, 119.841°W
Report Text: KRNO 220155Z 01009KT 10SM FEW110 SCT200 BKN250 13/M02 A3006 RMK AO2 SLP163 ACSL DSNT S T01281022
Loading
Personal Weather Stations






























Interactive Weather Map
Tropical Storm Tracking
New forecast layout! Learn more

10-Day Weather Forecast

Advertisements
Track Severe Weather on mobile